sensor_id;sensor_type;location;lat;lon;timestamp;P1;durP1;ratioP1;P2;durP2;ratioP2
53873;SDS011;62246;50.938;4.058;2022-09-02T00:01:51;5.25;;;2.47;;
53873;SDS011;62246;50.938;4.058;2022-09-02T00:04:18;6.35;;;2.70;;
53873;SDS011;62246;50.938;4.058;2022-09-02T00:06:47;6.25;;;2.90;;
53873;SDS011;62246;50.938;4.058;2022-09-02T00:09:15;9.43;;;2.67;;
53873;SDS011;62246;50.938;4.058;2022-09-02T00:11:43;5.05;;;2.67;;
53873;SDS011;62246;50.938;4.058;2022-09-02T00:14:14;7.90;;;3.00;;
53873;SDS011;62246;50.938;4.058;2022-09-02T00:16:43;8.90;;;2.60;;
53873;SDS011;62246;50.938;4.058;2022-09-02T00:21:42;8.32;;;2.80;;
53873;SDS011;62246;50.938;4.058;2022-09-02T00:24:07;6.80;;;2.90;;
53873;SDS011;62246;50.938;4.058;2022-09-02T00:26:32;8.30;;;2.80;;
53873;SDS011;62246;50.938;4.058;2022-09-02T00:28:58;8.15;;;3.33;;
53873;SDS011;62246;50.938;4.058;2022-09-02T00:31:24;7.55;;;3.10;;
53873;SDS011;62246;50.938;4.058;2022-09-02T00:33:50;7.03;;;2.97;;
53873;SDS011;62246;50.938;4.058;2022-09-02T00:36:15;7.82;;;3.20;;
53873;SDS011;62246;50.938;4.058;2022-09-02T00:38:41;7.63;;;2.92;;
53873;SDS011;62246;50.938;4.058;2022-09-02T00:41:08;9.25;;;2.92;;
53873;SDS011;62246;50.938;4.058;2022-09-02T00:43:39;7.25;;;3.10;;
53873;SDS011;62246;50.938;4.058;2022-09-02T00:46:06;7.00;;;3.25;;
53873;SDS011;62246;50.938;4.058;2022-09-02T00:48:32;6.75;;;2.92;;
53873;SDS011;62246;50.938;4.058;2022-09-02T00:50:59;8.27;;;3.22;;
53873;SDS011;62246;50.938;4.058;2022-09-02T00:53:27;9.18;;;3.20;;
53873;SDS011;62246;50.938;4.058;2022-09-02T00:55:53;10.07;;;3.00;;
53873;SDS011;62246;50.938;4.058;2022-09-02T00:58:21;8.77;;;3.13;;
53873;SDS011;62246;50.938;4.058;2022-09-02T01:00:50;8.07;;;2.97;;
53873;SDS011;62246;50.938;4.058;2022-09-02T01:03:21;6.65;;;3.10;;
53873;SDS011;62246;50.938;4.058;2022-09-02T01:05:49;6.55;;;2.92;;
53873;SDS011;62246;50.938;4.058;2022-09-02T01:08:18;7.10;;;3.00;;
53873;SDS011;62246;50.938;4.058;2022-09-02T01:10:49;9.13;;;3.20;;
53873;SDS011;62246;50.938;4.058;2022-09-02T01:13:19;7.90;;;3.50;;
53873;SDS011;62246;50.938;4.058;2022-09-02T01:15:49;8.02;;;3.08;;
53873;SDS011;62246;50.938;4.058;2022-09-02T01:18:24;7.78;;;3.25;;
53873;SDS011;62246;50.938;4.058;2022-09-02T01:20:55;7.05;;;3.25;;
53873;SDS011;62246;50.938;4.058;2022-09-02T01:23:25;7.97;;;3.15;;
53873;SDS011;62246;50.938;4.058;2022-09-02T01:25:53;9.38;;;3.33;;
53873;SDS011;62246;50.938;4.058;2022-09-02T01:28:19;9.60;;;3.50;;
53873;SDS011;62246;50.938;4.058;2022-09-02T01:30:48;7.35;;;3.42;;
53873;SDS011;62246;50.938;4.058;2022-09-02T01:33:17;9.73;;;3.60;;
53873;SDS011;62246;50.938;4.058;2022-09-02T01:35:43;8.35;;;3.63;;
53873;SDS011;62246;50.938;4.058;2022-09-02T01:38:09;7.65;;;3.35;;
53873;SDS011;62246;50.938;4.058;2022-09-02T01:40:35;8.70;;;3.22;;
53873;SDS011;62246;50.938;4.058;2022-09-02T01:43:03;4.93;;;3.03;;
53873;SDS011;62246;50.938;4.058;2022-09-02T01:45:32;7.28;;;3.28;;
53873;SDS011;62246;50.938;4.058;2022-09-02T01:47:59;10.35;;;3.65;;
53873;SDS011;62246;50.938;4.058;2022-09-02T01:50:25;7.60;;;3.83;;
53873;SDS011;62246;50.938;4.058;2022-09-02T01:52:51;7.25;;;3.50;;
53873;SDS011;62246;50.938;4.058;2022-09-02T01:55:17;6.25;;;3.35;;
53873;SDS011;62246;50.938;4.058;2022-09-02T01:57:42;6.10;;;3.38;;
53873;SDS011;62246;50.938;4.058;2022-09-02T02:00:08;7.57;;;3.58;;
53873;SDS011;62246;50.938;4.058;2022-09-02T02:02:39;7.10;;;3.17;;
53873;SDS011;62246;50.938;4.058;2022-09-02T02:05:05;5.85;;;3.20;;
53873;SDS011;62246;50.938;4.058;2022-09-02T02:07:31;5.30;;;3.25;;
53873;SDS011;62246;50.938;4.058;2022-09-02T02:09:56;6.97;;;3.60;;
53873;SDS011;62246;50.938;4.058;2022-09-02T02:12:22;6.68;;;3.88;;
53873;SDS011;62246;50.938;4.058;2022-09-02T02:14:47;7.68;;;3.50;;
53873;SDS011;62246;50.938;4.058;2022-09-02T02:17:13;9.32;;;3.65;;
53873;SDS011;62246;50.938;4.058;2022-09-02T02:19:38;9.07;;;4.03;;
53873;SDS011;62246;50.938;4.058;2022-09-02T02:22:04;7.50;;;3.75;;
53873;SDS011;62246;50.938;4.058;2022-09-02T02:24:29;7.07;;;3.85;;
53873;SDS011;62246;50.938;4.058;2022-09-02T02:26:55;10.73;;;3.63;;
53873;SDS011;62246;50.938;4.058;2022-09-02T02:29:20;8.90;;;3.72;;
53873;SDS011;62246;50.938;4.058;2022-09-02T02:31:47;7.47;;;3.40;;
53873;SDS011;62246;50.938;4.058;2022-09-02T02:34:13;6.57;;;3.63;;
53873;SDS011;62246;50.938;4.058;2022-09-02T02:36:39;5.18;;;3.25;;
53873;SDS011;62246;50.938;4.058;2022-09-02T02:39:06;8.98;;;3.50;;
53873;SDS011;62246;50.938;4.058;2022-09-02T02:41:34;5.68;;;3.55;;
53873;SDS011;62246;50.938;4.058;2022-09-02T02:44:01;7.68;;;3.70;;
53873;SDS011;62246;50.938;4.058;2022-09-02T02:46:27;8.90;;;3.92;;
53873;SDS011;62246;50.938;4.058;2022-09-02T02:48:55;6.90;;;3.53;;
53873;SDS011;62246;50.938;4.058;2022-09-02T02:51:20;7.30;;;3.85;;
53873;SDS011;62246;50.938;4.058;2022-09-02T02:53:46;10.48;;;3.72;;
53873;SDS011;62246;50.938;4.058;2022-09-02T02:56:11;8.95;;;3.42;;
53873;SDS011;62246;50.938;4.058;2022-09-02T02:58:36;7.72;;;3.75;;
53873;SDS011;62246;50.938;4.058;2022-09-02T03:01:02;7.70;;;3.65;;
53873;SDS011;62246;50.938;4.058;2022-09-02T03:03:28;7.53;;;3.60;;
53873;SDS011;62246;50.938;4.058;2022-09-02T03:05:53;6.40;;;3.83;;
53873;SDS011;62246;50.938;4.058;2022-09-02T03:08:20;9.18;;;4.05;;
53873;SDS011;62246;50.938;4.058;2022-09-02T03:10:47;6.80;;;3.70;;
53873;SDS011;62246;50.938;4.058;2022-09-02T03:13:15;8.43;;;4.00;;
53873;SDS011;62246;50.938;4.058;2022-09-02T03:15:41;7.25;;;3.67;;
53873;SDS011;62246;50.938;4.058;2022-09-02T03:18:07;8.65;;;4.38;;
53873;SDS011;62246;50.938;4.058;2022-09-02T03:20:33;8.00;;;3.80;;
53873;SDS011;62246;50.938;4.058;2022-09-02T03:22:59;7.88;;;3.83;;
53873;SDS011;62246;50.938;4.058;2022-09-02T03:25:26;6.68;;;3.40;;
53873;SDS011;62246;50.938;4.058;2022-09-02T03:27:52;10.80;;;4.10;;
53873;SDS011;62246;50.938;4.058;2022-09-02T03:30:20;8.30;;;3.72;;
53873;SDS011;62246;50.938;4.058;2022-09-02T03:32:48;6.60;;;3.85;;
53873;SDS011;62246;50.938;4.058;2022-09-02T03:35:15;8.13;;;4.00;;
53873;SDS011;62246;50.938;4.058;2022-09-02T03:37:43;7.97;;;3.80;;
53873;SDS011;62246;50.938;4.058;2022-09-02T03:40:12;9.95;;;4.03;;
53873;SDS011;62246;50.938;4.058;2022-09-02T03:42:40;9.82;;;4.07;;
53873;SDS011;62246;50.938;4.058;2022-09-02T03:45:06;9.02;;;3.83;;
53873;SDS011;62246;50.938;4.058;2022-09-02T03:47:33;7.45;;;3.83;;
53873;SDS011;62246;50.938;4.058;2022-09-02T03:50:00;8.20;;;4.00;;
53873;SDS011;62246;50.938;4.058;2022-09-02T03:52:27;5.30;;;3.47;;
53873;SDS011;62246;50.938;4.058;2022-09-02T03:54:53;7.93;;;3.85;;
53873;SDS011;62246;50.938;4.058;2022-09-02T03:57:18;7.40;;;3.75;;
53873;SDS011;62246;50.938;4.058;2022-09-02T03:59:44;10.00;;;4.55;;
53873;SDS011;62246;50.938;4.058;2022-09-02T04:02:10;7.38;;;4.20;;
53873;SDS011;62246;50.938;4.058;2022-09-02T04:04:35;8.90;;;3.80;;
53873;SDS011;62246;50.938;4.058;2022-09-02T04:07:01;7.40;;;4.15;;
53873;SDS011;62246;50.938;4.058;2022-09-02T04:09:26;10.20;;;4.60;;
53873;SDS011;62246;50.938;4.058;2022-09-02T04:11:52;7.57;;;4.18;;
53873;SDS011;62246;50.938;4.058;2022-09-02T04:14:17;6.68;;;4.10;;
53873;SDS011;62246;50.938;4.058;2022-09-02T04:16:43;5.85;;;3.75;;
53873;SDS011;62246;50.938;4.058;2022-09-02T04:19:09;10.13;;;4.60;;
53873;SDS011;62246;50.938;4.058;2022-09-02T04:21:35;8.40;;;4.15;;
53873;SDS011;62246;50.938;4.058;2022-09-02T04:24:03;7.93;;;3.92;;
53873;SDS011;62246;50.938;4.058;2022-09-02T04:26:30;7.70;;;4.20;;
53873;SDS011;62246;50.938;4.058;2022-09-02T04:28:55;9.27;;;4.30;;
53873;SDS011;62246;50.938;4.058;2022-09-02T04:31:22;8.85;;;3.97;;
53873;SDS011;62246;50.938;4.058;2022-09-02T04:33:53;11.15;;;4.13;;
53873;SDS011;62246;50.938;4.058;2022-09-02T04:36:20;10.27;;;5.07;;
53873;SDS011;62246;50.938;4.058;2022-09-02T04:38:47;7.80;;;4.18;;
53873;SDS011;62246;50.938;4.058;2022-09-02T04:41:15;10.20;;;4.50;;
53873;SDS011;62246;50.938;4.058;2022-09-02T04:43:46;8.90;;;4.30;;
53873;SDS011;62246;50.938;4.058;2022-09-02T04:46:13;8.77;;;4.45;;
53873;SDS011;62246;50.938;4.058;2022-09-02T04:48:40;7.40;;;4.25;;
53873;SDS011;62246;50.938;4.058;2022-09-02T04:51:16;10.20;;;4.88;;
53873;SDS011;62246;50.938;4.058;2022-09-02T04:53:49;10.13;;;4.32;;
53873;SDS011;62246;50.938;4.058;2022-09-02T04:56:17;8.27;;;4.53;;
53873;SDS011;62246;50.938;4.058;2022-09-02T04:58:45;10.25;;;4.85;;
53873;SDS011;62246;50.938;4.058;2022-09-02T05:01:12;8.32;;;4.72;;
53873;SDS011;62246;50.938;4.058;2022-09-02T05:03:40;8.55;;;4.20;;
53873;SDS011;62246;50.938;4.058;2022-09-02T05:06:08;8.38;;;4.72;;
53873;SDS011;62246;50.938;4.058;2022-09-02T05:08:35;7.00;;;4.20;;
53873;SDS011;62246;50.938;4.058;2022-09-02T05:11:16;13.00;;;4.25;;
53873;SDS011;62246;50.938;4.058;2022-09-02T05:13:48;8.20;;;4.13;;
53873;SDS011;62246;50.938;4.058;2022-09-02T05:16:18;11.27;;;4.40;;
53873;SDS011;62246;50.938;4.058;2022-09-02T05:18:45;9.93;;;4.45;;
53873;SDS011;62246;50.938;4.058;2022-09-02T05:21:11;8.75;;;4.22;;
53873;SDS011;62246;50.938;4.058;2022-09-02T05:23:39;13.82;;;4.57;;
53873;SDS011;62246;50.938;4.058;2022-09-02T05:26:06;10.07;;;4.60;;
53873;SDS011;62246;50.938;4.058;2022-09-02T05:28:33;8.35;;;4.18;;
53873;SDS011;62246;50.938;4.058;2022-09-02T05:31:05;10.88;;;4.28;;
53873;SDS011;62246;50.938;4.058;2022-09-02T05:33:32;8.90;;;4.25;;
53873;SDS011;62246;50.938;4.058;2022-09-02T05:36:05;8.98;;;4.18;;
53873;SDS011;62246;50.938;4.058;2022-09-02T05:38:31;12.85;;;4.47;;
53873;SDS011;62246;50.938;4.058;2022-09-02T05:40:57;9.48;;;4.07;;
53873;SDS011;62246;50.938;4.058;2022-09-02T05:43:24;9.90;;;4.50;;
53873;SDS011;62246;50.938;4.058;2022-09-02T05:45:49;9.13;;;4.20;;
53873;SDS011;62246;50.938;4.058;2022-09-02T05:48:15;8.10;;;4.28;;
53873;SDS011;62246;50.938;4.058;2022-09-02T05:51:02;11.18;;;4.15;;
53873;SDS011;62246;50.938;4.058;2022-09-02T05:53:28;8.80;;;4.40;;
53873;SDS011;62246;50.938;4.058;2022-09-02T05:55:54;8.55;;;4.15;;
53873;SDS011;62246;50.938;4.058;2022-09-02T05:58:20;9.30;;;4.45;;
53873;SDS011;62246;50.938;4.058;2022-09-02T06:00:45;10.65;;;3.92;;
53873;SDS011;62246;50.938;4.058;2022-09-02T06:03:11;7.22;;;3.70;;
53873;SDS011;62246;50.938;4.058;2022-09-02T06:05:36;10.02;;;3.75;;
53873;SDS011;62246;50.938;4.058;2022-09-02T06:08:02;9.00;;;3.90;;
53873;SDS011;62246;50.938;4.058;2022-09-02T06:10:28;9.15;;;3.95;;
53873;SDS011;62246;50.938;4.058;2022-09-02T06:12:53;9.30;;;4.00;;
53873;SDS011;62246;50.938;4.058;2022-09-02T06:15:19;9.00;;;3.67;;
53873;SDS011;62246;50.938;4.058;2022-09-02T06:17:44;9.57;;;4.03;;
53873;SDS011;62246;50.938;4.058;2022-09-02T06:20:09;8.35;;;4.10;;
53873;SDS011;62246;50.938;4.058;2022-09-02T06:22:35;9.85;;;3.95;;
53873;SDS011;62246;50.938;4.058;2022-09-02T06:25:03;8.60;;;4.05;;
53873;SDS011;62246;50.938;4.058;2022-09-02T06:27:29;13.00;;;4.45;;
53873;SDS011;62246;50.938;4.058;2022-09-02T06:29:55;10.98;;;4.10;;
53873;SDS011;62246;50.938;4.058;2022-09-02T06:32:20;8.93;;;3.75;;
53873;SDS011;62246;50.938;4.058;2022-09-02T06:34:46;9.30;;;4.03;;
53873;SDS011;62246;50.938;4.058;2022-09-02T06:37:12;9.85;;;4.22;;
53873;SDS011;62246;50.938;4.058;2022-09-02T06:39:38;7.93;;;3.60;;
53873;SDS011;62246;50.938;4.058;2022-09-02T06:42:07;10.15;;;4.60;;
53873;SDS011;62246;50.938;4.058;2022-09-02T06:44:33;10.93;;;4.30;;
53873;SDS011;62246;50.938;4.058;2022-09-02T06:46:58;10.85;;;3.75;;
53873;SDS011;62246;50.938;4.058;2022-09-02T06:49:24;8.45;;;3.92;;
53873;SDS011;62246;50.938;4.058;2022-09-02T06:51:51;8.32;;;3.67;;
53873;SDS011;62246;50.938;4.058;2022-09-02T06:54:19;6.93;;;3.70;;
53873;SDS011;62246;50.938;4.058;2022-09-02T06:56:46;6.82;;;3.65;;
53873;SDS011;62246;50.938;4.058;2022-09-02T06:59:13;10.90;;;3.97;;
53873;SDS011;62246;50.938;4.058;2022-09-02T07:01:39;6.90;;;3.42;;
53873;SDS011;62246;50.938;4.058;2022-09-02T07:04:04;8.30;;;3.65;;
53873;SDS011;62246;50.938;4.058;2022-09-02T07:06:49;7.07;;;3.67;;
53873;SDS011;62246;50.938;4.058;2022-09-02T07:09:18;7.25;;;3.38;;
53873;SDS011;62246;50.938;4.058;2022-09-02T07:11:55;7.93;;;3.63;;
53873;SDS011;62246;50.938;4.058;2022-09-02T07:14:22;7.32;;;3.15;;
53873;SDS011;62246;50.938;4.058;2022-09-02T07:16:49;6.40;;;3.30;;
53873;SDS011;62246;50.938;4.058;2022-09-02T07:19:16;7.90;;;3.35;;
53873;SDS011;62246;50.938;4.058;2022-09-02T07:21:42;8.80;;;3.88;;
53873;SDS011;62246;50.938;4.058;2022-09-02T07:24:09;8.07;;;3.45;;
53873;SDS011;62246;50.938;4.058;2022-09-02T07:26:36;9.18;;;3.75;;
53873;SDS011;62246;50.938;4.058;2022-09-02T07:29:03;6.18;;;3.40;;
53873;SDS011;62246;50.938;4.058;2022-09-02T07:31:33;7.90;;;3.15;;
53873;SDS011;62246;50.938;4.058;2022-09-02T07:34:03;8.77;;;3.70;;
53873;SDS011;62246;50.938;4.058;2022-09-02T07:36:30;9.32;;;3.92;;
53873;SDS011;62246;50.938;4.058;2022-09-02T07:38:56;8.98;;;3.70;;
53873;SDS011;62246;50.938;4.058;2022-09-02T07:41:22;8.48;;;4.20;;
53873;SDS011;62246;50.938;4.058;2022-09-02T07:43:48;7.90;;;3.35;;
53873;SDS011;62246;50.938;4.058;2022-09-02T07:46:14;9.80;;;3.55;;
53873;SDS011;62246;50.938;4.058;2022-09-02T07:48:40;10.45;;;4.03;;
53873;SDS011;62246;50.938;4.058;2022-09-02T07:51:06;9.10;;;3.80;;
53873;SDS011;62246;50.938;4.058;2022-09-02T07:53:32;6.78;;;3.92;;
53873;SDS011;62246;50.938;4.058;2022-09-02T07:55:58;10.50;;;3.20;;
53873;SDS011;62246;50.938;4.058;2022-09-02T07:58:24;8.73;;;3.53;;
53873;SDS011;62246;50.938;4.058;2022-09-02T08:00:50;6.05;;;3.20;;
53873;SDS011;62246;50.938;4.058;2022-09-02T08:03:17;6.25;;;3.53;;
53873;SDS011;62246;50.938;4.058;2022-09-02T08:05:43;6.13;;;3.22;;
53873;SDS011;62246;50.938;4.058;2022-09-02T08:08:11;5.10;;;2.97;;
53873;SDS011;62246;50.938;4.058;2022-09-02T08:10:37;5.80;;;3.28;;
53873;SDS011;62246;50.938;4.058;2022-09-02T08:13:03;5.93;;;3.42;;
53873;SDS011;62246;50.938;4.058;2022-09-02T08:15:30;5.93;;;3.28;;
53873;SDS011;62246;50.938;4.058;2022-09-02T08:18:00;6.00;;;3.03;;
53873;SDS011;62246;50.938;4.058;2022-09-02T08:20:26;6.72;;;3.30;;
53873;SDS011;62246;50.938;4.058;2022-09-02T08:22:54;5.25;;;3.30;;
53873;SDS011;62246;50.938;4.058;2022-09-02T08:25:20;5.80;;;2.80;;
53873;SDS011;62246;50.938;4.058;2022-09-02T08:27:45;8.25;;;3.15;;
53873;SDS011;62246;50.938;4.058;2022-09-02T08:30:10;5.50;;;2.90;;
53873;SDS011;62246;50.938;4.058;2022-09-02T08:32:37;4.57;;;2.97;;
53873;SDS011;62246;50.938;4.058;2022-09-02T08:35:04;4.63;;;3.05;;
53873;SDS011;62246;50.938;4.058;2022-09-02T08:37:30;5.85;;;3.20;;
53873;SDS011;62246;50.938;4.058;2022-09-02T08:39:58;6.60;;;3.70;;
53873;SDS011;62246;50.938;4.058;2022-09-02T08:42:31;5.65;;;3.03;;
53873;SDS011;62246;50.938;4.058;2022-09-02T08:47:30;7.90;;;3.47;;
53873;SDS011;62246;50.938;4.058;2022-09-02T08:49:59;6.95;;;3.30;;
53873;SDS011;62246;50.938;4.058;2022-09-02T08:52:32;5.40;;;3.00;;
53873;SDS011;62246;50.938;4.058;2022-09-02T08:55:04;4.90;;;3.00;;
53873;SDS011;62246;50.938;4.058;2022-09-02T08:57:31;5.70;;;3.25;;
53873;SDS011;62246;50.938;4.058;2022-09-02T08:59:59;8.32;;;3.25;;
53873;SDS011;62246;50.938;4.058;2022-09-02T09:02:42;5.72;;;3.20;;
53873;SDS011;62246;50.938;4.058;2022-09-02T09:05:32;8.43;;;3.60;;
53873;SDS011;62246;50.938;4.058;2022-09-02T09:16:37;3.72;;;3.00;;
53873;SDS011;62246;50.938;4.058;2022-09-02T09:21:35;3.90;;;2.42;;
53873;SDS011;62246;50.938;4.058;2022-09-02T09:24:01;7.85;;;3.20;;
53873;SDS011;62246;50.938;4.058;2022-09-02T09:26:32;6.95;;;3.10;;
53873;SDS011;62246;50.938;4.058;2022-09-02T09:29:02;6.20;;;3.38;;
53873;SDS011;62246;50.938;4.058;2022-09-02T09:31:29;4.55;;;2.80;;
53873;SDS011;62246;50.938;4.058;2022-09-02T09:34:00;7.85;;;3.10;;
53873;SDS011;62246;50.938;4.058;2022-09-02T09:41:57;5.00;;;3.25;;
53873;SDS011;62246;50.938;4.058;2022-09-02T09:44:41;4.00;;;2.60;;
53873;SDS011;62246;50.938;4.058;2022-09-02T09:47:24;6.18;;;3.30;;
53873;SDS011;62246;50.938;4.058;2022-09-02T09:52:21;4.03;;;2.65;;
53873;SDS011;62246;50.938;4.058;2022-09-02T09:54:58;4.40;;;2.67;;
53873;SDS011;62246;50.938;4.058;2022-09-02T09:57:30;4.85;;;3.10;;
53873;SDS011;62246;50.938;4.058;2022-09-02T09:59:55;6.38;;;3.13;;
53873;SDS011;62246;50.938;4.058;2022-09-02T10:02:25;5.70;;;3.10;;
53873;SDS011;62246;50.938;4.058;2022-09-02T10:04:53;4.65;;;2.80;;
53873;SDS011;62246;50.938;4.058;2022-09-02T10:07:40;3.60;;;2.60;;
53873;SDS011;62246;50.938;4.058;2022-09-02T10:12:46;5.78;;;2.80;;
53873;SDS011;62246;50.938;4.058;2022-09-02T10:15:14;5.13;;;2.78;;
53873;SDS011;62246;50.938;4.058;2022-09-02T10:23:44;4.53;;;2.35;;
53873;SDS011;62246;50.938;4.058;2022-09-02T10:31:36;4.68;;;2.65;;
53873;SDS011;62246;50.938;4.058;2022-09-02T10:42:10;4.53;;;2.78;;
53873;SDS011;62246;50.938;4.058;2022-09-02T10:45:13;2.85;;;2.30;;
53873;SDS011;62246;50.938;4.058;2022-09-02T10:50:42;3.42;;;2.72;;
53873;SDS011;62246;50.938;4.058;2022-09-02T10:56:18;5.55;;;2.83;;
53873;SDS011;62246;50.938;4.058;2022-09-02T10:58:53;2.38;;;2.00;;
53873;SDS011;62246;50.938;4.058;2022-09-02T11:01:27;5.30;;;2.42;;
53873;SDS011;62246;50.938;4.058;2022-09-02T11:04:00;3.67;;;2.22;;
53873;SDS011;62246;50.938;4.058;2022-09-02T11:06:32;6.07;;;2.80;;
53873;SDS011;62246;50.938;4.058;2022-09-02T11:14:36;6.20;;;2.65;;
53873;SDS011;62246;50.938;4.058;2022-09-02T11:30:39;6.40;;;3.00;;
53873;SDS011;62246;50.938;4.058;2022-09-02T11:33:12;4.95;;;2.70;;
53873;SDS011;62246;50.938;4.058;2022-09-02T11:35:43;6.40;;;3.00;;
53873;SDS011;62246;50.938;4.058;2022-09-02T11:38:30;4.18;;;2.60;;
53873;SDS011;62246;50.938;4.058;2022-09-02T11:44:00;3.80;;;2.38;;
53873;SDS011;62246;50.938;4.058;2022-09-02T11:54:57;4.53;;;2.17;;
53873;SDS011;62246;50.938;4.058;2022-09-02T11:57:40;5.90;;;2.25;;
53873;SDS011;62246;50.938;4.058;2022-09-02T12:00:07;3.47;;;2.15;;
53873;SDS011;62246;50.938;4.058;2022-09-02T12:02:40;4.82;;;2.63;;
53873;SDS011;62246;50.938;4.058;2022-09-02T12:07:58;3.60;;;2.35;;
53873;SDS011;62246;50.938;4.058;2022-09-02T12:13:04;5.55;;;2.40;;
53873;SDS011;62246;50.938;4.058;2022-09-02T12:15:32;3.83;;;2.28;;
53873;SDS011;62246;50.938;4.058;2022-09-02T12:18:09;4.13;;;2.47;;
53873;SDS011;62246;50.938;4.058;2022-09-02T12:23:02;7.40;;;2.70;;
53873;SDS011;62246;50.938;4.058;2022-09-02T12:33:33;2.40;;;2.20;;
53873;SDS011;62246;50.938;4.058;2022-09-02T12:36:00;3.72;;;2.35;;
53873;SDS011;62246;50.938;4.058;2022-09-02T12:38:39;3.22;;;2.47;;
53873;SDS011;62246;50.938;4.058;2022-09-02T12:46:35;2.83;;;2.60;;
53873;SDS011;62246;50.938;4.058;2022-09-02T12:49:28;2.88;;;2.40;;
53873;SDS011;62246;50.938;4.058;2022-09-02T12:54:40;4.35;;;2.90;;
53873;SDS011;62246;50.938;4.058;2022-09-02T12:57:11;2.88;;;2.60;;
53873;SDS011;62246;50.938;4.058;2022-09-02T12:59:40;5.88;;;2.88;;
53873;SDS011;62246;50.938;4.058;2022-09-02T13:02:30;3.05;;;2.78;;
53873;SDS011;62246;50.938;4.058;2022-09-02T13:14:41;3.00;;;2.35;;
53873;SDS011;62246;50.938;4.058;2022-09-02T13:17:44;4.15;;;2.38;;
53873;SDS011;62246;50.938;4.058;2022-09-02T13:32:14;3.42;;;2.70;;
53873;SDS011;62246;50.938;4.058;2022-09-02T13:34:50;4.07;;;2.90;;
53873;SDS011;62246;50.938;4.058;2022-09-02T13:42:47;2.80;;;2.20;;
53873;SDS011;62246;50.938;4.058;2022-09-02T13:45:18;3.50;;;2.20;;
53873;SDS011;62246;50.938;4.058;2022-09-02T13:47:48;3.35;;;2.30;;
53873;SDS011;62246;50.938;4.058;2022-09-02T13:50:23;3.38;;;2.28;;
53873;SDS011;62246;50.938;4.058;2022-09-02T13:53:05;3.97;;;2.50;;
53873;SDS011;62246;50.938;4.058;2022-09-02T13:55:32;4.93;;;2.70;;
53873;SDS011;62246;50.938;4.058;2022-09-02T13:57:59;2.65;;;2.35;;
53873;SDS011;62246;50.938;4.058;2022-09-02T14:00:35;4.95;;;2.40;;
53873;SDS011;62246;50.938;4.058;2022-09-02T14:03:14;2.55;;;2.30;;
53873;SDS011;62246;50.938;4.058;2022-09-02T14:05:43;3.70;;;2.27;;
53873;SDS011;62246;50.938;4.058;2022-09-02T14:08:12;3.67;;;2.00;;
53873;SDS011;62246;50.938;4.058;2022-09-02T14:10:40;3.88;;;2.10;;
53873;SDS011;62246;50.938;4.058;2022-09-02T14:13:08;5.57;;;2.15;;
53873;SDS011;62246;50.938;4.058;2022-09-02T14:15:34;4.20;;;2.00;;
53873;SDS011;62246;50.938;4.058;2022-09-02T14:18:14;4.97;;;2.20;;
53873;SDS011;62246;50.938;4.058;2022-09-02T14:23:33;3.22;;;2.17;;
53873;SDS011;62246;50.938;4.058;2022-09-02T14:26:02;3.75;;;2.10;;
53873;SDS011;62246;50.938;4.058;2022-09-02T14:28:29;5.28;;;2.47;;
53873;SDS011;62246;50.938;4.058;2022-09-02T14:33:25;3.25;;;2.17;;
53873;SDS011;62246;50.938;4.058;2022-09-02T14:36:09;2.50;;;2.30;;
53873;SDS011;62246;50.938;4.058;2022-09-02T14:39:07;4.40;;;2.10;;
53873;SDS011;62246;50.938;4.058;2022-09-02T14:41:35;3.17;;;2.10;;
53873;SDS011;62246;50.938;4.058;2022-09-02T14:44:22;2.60;;;2.33;;
53873;SDS011;62246;50.938;4.058;2022-09-02T14:46:53;2.53;;;2.33;;
53873;SDS011;62246;50.938;4.058;2022-09-02T14:49:22;3.67;;;2.10;;
53873;SDS011;62246;50.938;4.058;2022-09-02T14:51:51;2.47;;;2.20;;
53873;SDS011;62246;50.938;4.058;2022-09-02T14:54:32;3.78;;;2.40;;
53873;SDS011;62246;50.938;4.058;2022-09-02T14:57:01;2.63;;;2.40;;
53873;SDS011;62246;50.938;4.058;2022-09-02T14:59:27;2.15;;;1.77;;
53873;SDS011;62246;50.938;4.058;2022-09-02T15:01:53;2.28;;;2.00;;
53873;SDS011;62246;50.938;4.058;2022-09-02T15:04:21;2.95;;;2.05;;
53873;SDS011;62246;50.938;4.058;2022-09-02T15:06:46;3.60;;;1.90;;
53873;SDS011;62246;50.938;4.058;2022-09-02T15:09:13;3.85;;;1.90;;
53873;SDS011;62246;50.938;4.058;2022-09-02T15:11:40;3.92;;;1.98;;
53873;SDS011;62246;50.938;4.058;2022-09-02T15:14:09;3.80;;;2.00;;
53873;SDS011;62246;50.938;4.058;2022-09-02T15:16:36;4.80;;;2.08;;
53873;SDS011;62246;50.938;4.058;2022-09-02T15:19:02;3.53;;;2.10;;
53873;SDS011;62246;50.938;4.058;2022-09-02T15:21:27;3.00;;;1.98;;
53873;SDS011;62246;50.938;4.058;2022-09-02T15:23:53;3.58;;;1.88;;
53873;SDS011;62246;50.938;4.058;2022-09-02T15:26:18;3.22;;;1.80;;
53873;SDS011;62246;50.938;4.058;2022-09-02T15:28:44;2.38;;;2.05;;
53873;SDS011;62246;50.938;4.058;2022-09-02T15:31:09;3.15;;;1.92;;
53873;SDS011;62246;50.938;4.058;2022-09-02T15:33:35;4.63;;;1.98;;
53873;SDS011;62246;50.938;4.058;2022-09-02T15:36:08;3.50;;;2.00;;
53873;SDS011;62246;50.938;4.058;2022-09-02T15:38:37;2.08;;;1.83;;
53873;SDS011;62246;50.938;4.058;2022-09-02T15:41:21;2.20;;;1.70;;
53873;SDS011;62246;50.938;4.058;2022-09-02T15:43:49;3.17;;;1.80;;
53873;SDS011;62246;50.938;4.058;2022-09-02T15:46:20;2.90;;;1.80;;
53873;SDS011;62246;50.938;4.058;2022-09-02T15:48:49;3.20;;;1.88;;
53873;SDS011;62246;50.938;4.058;2022-09-02T15:51:16;2.45;;;2.00;;
53873;SDS011;62246;50.938;4.058;2022-09-02T15:53:43;3.90;;;1.95;;
53873;SDS011;62246;50.938;4.058;2022-09-02T15:56:19;3.22;;;1.98;;
53873;SDS011;62246;50.938;4.058;2022-09-02T15:58:52;3.83;;;1.90;;
53873;SDS011;62246;50.938;4.058;2022-09-02T16:01:28;3.28;;;1.90;;
53873;SDS011;62246;50.938;4.058;2022-09-02T16:03:55;2.45;;;1.85;;
53873;SDS011;62246;50.938;4.058;2022-09-02T16:06:22;2.47;;;1.98;;
53873;SDS011;62246;50.938;4.058;2022-09-02T16:08:48;4.97;;;1.70;;
53873;SDS011;62246;50.938;4.058;2022-09-02T16:11:13;5.72;;;2.20;;
53873;SDS011;62246;50.938;4.058;2022-09-02T16:13:39;5.03;;;2.15;;
53873;SDS011;62246;50.938;4.058;2022-09-02T16:16:05;4.40;;;1.80;;
53873;SDS011;62246;50.938;4.058;2022-09-02T16:18:33;2.72;;;1.83;;
53873;SDS011;62246;50.938;4.058;2022-09-02T16:20:59;3.55;;;2.13;;
53873;SDS011;62246;50.938;4.058;2022-09-02T16:23:25;3.42;;;2.05;;
53873;SDS011;62246;50.938;4.058;2022-09-02T16:28:43;3.05;;;2.00;;
53873;SDS011;62246;50.938;4.058;2022-09-02T16:31:10;3.10;;;2.08;;
53873;SDS011;62246;50.938;4.058;2022-09-02T16:36:08;5.30;;;2.15;;
53873;SDS011;62246;50.938;4.058;2022-09-02T16:38:34;6.32;;;2.15;;
53873;SDS011;62246;50.938;4.058;2022-09-02T16:41:00;7.93;;;3.15;;
53873;SDS011;62246;50.938;4.058;2022-09-02T16:43:25;8.13;;;3.75;;
53873;SDS011;62246;50.938;4.058;2022-09-02T16:45:51;8.43;;;3.60;;
53873;SDS011;62246;50.938;4.058;2022-09-02T16:48:18;9.02;;;3.83;;
53873;SDS011;62246;50.938;4.058;2022-09-02T16:50:45;14.48;;;3.88;;
53873;SDS011;62246;50.938;4.058;2022-09-02T16:53:11;6.72;;;3.55;;
53873;SDS011;62246;50.938;4.058;2022-09-02T16:55:40;7.22;;;3.10;;
53873;SDS011;62246;50.938;4.058;2022-09-02T16:58:07;7.15;;;2.60;;
53873;SDS011;62246;50.938;4.058;2022-09-02T17:00:35;4.82;;;2.75;;
53873;SDS011;62246;50.938;4.058;2022-09-02T17:03:04;5.90;;;3.00;;
53873;SDS011;62246;50.938;4.058;2022-09-02T17:05:39;6.75;;;3.10;;
53873;SDS011;62246;50.938;4.058;2022-09-02T17:08:05;8.93;;;2.67;;
53873;SDS011;62246;50.938;4.058;2022-09-02T17:10:32;5.60;;;2.95;;
53873;SDS011;62246;50.938;4.058;2022-09-02T17:12:58;4.85;;;3.05;;
53873;SDS011;62246;50.938;4.058;2022-09-02T17:15:25;5.47;;;2.78;;
53873;SDS011;62246;50.938;4.058;2022-09-02T17:17:52;5.68;;;2.70;;
53873;SDS011;62246;50.938;4.058;2022-09-02T17:20:18;8.40;;;3.10;;